Time;durP1;ratioP1;P1;durP2;ratioP2;P2;SDS_P1;SDS_P2;PMS_P1;PMS_P2;Temp;Humidity;BMP_temperature;BMP_pressure;BME280_temperature;BME280_humidity;BME280_pressure;Samples;Min_cycle;Max_cycle;Signal;HPM_P1;HPM_P2
2022/08/30 00:02:56;;;;;;;16.88;7.07;;;16.00;99.90;;;;;;4935654;29;20091;-73
2022/08/30 00:05:22;;;;;;;15.10;7.32;;;16.00;99.90;;;;;;4935923;29;20050;-71
2022/08/30 00:07:49;;;;;;;15.73;7.57;;;16.00;99.90;;;;;;4934084;29;20075;-75
2022/08/30 00:10:15;;;;;;;15.15;7.25;;;16.00;99.90;;;;;;4935160;29;20087;-72
2022/08/30 00:12:42;;;;;;;15.30;6.95;;;16.00;99.90;;;;;;4935842;29;20441;-71
2022/08/30 00:15:08;;;;;;;;;;;16.00;99.90;;;;;;4919985;29;20516;-73
2022/08/30 00:17:35;;;;;;;17.65;7.43;;;16.00;99.90;;;;;;4919274;29;20333;-71
2022/08/30 00:20:01;;;;;;;18.65;7.30;;;16.00;99.90;;;;;;4934712;29;20094;-72
2022/08/30 00:22:26;;;;;;;15.67;7.10;;;16.00;99.90;;;;;;4935357;29;20432;-71
2022/08/30 00:24:52;;;;;;;17.00;7.47;;;16.00;99.90;;;;;;4934318;29;20099;-71
2022/08/30 00:27:18;;;;;;;14.70;6.80;;;16.00;99.90;;;;;;4937028;29;20043;-71
2022/08/30 00:29:44;;;;;;;14.85;7.88;;;16.00;99.90;;;;;;4935292;29;20055;-70
2022/08/30 00:32:11;;;;;;;19.30;7.43;;;16.00;99.90;;;;;;4936025;29;20442;-71
2022/08/30 00:34:36;;;;;;;15.65;7.45;;;16.00;99.90;;;;;;4935366;29;20058;-73
2022/08/30 00:37:02;;;;;;;13.95;6.78;;;16.00;99.90;;;;;;4949518;29;20393;-71
2022/08/30 00:39:28;;;;;;;11.80;6.68;;;15.90;99.90;;;;;;4935028;29;20091;-71
2022/08/30 00:41:54;;;;;;;20.38;7.78;;;15.90;99.90;;;;;;4936436;29;20047;-70
2022/08/30 00:44:19;;;;;;;17.50;7.25;;;15.90;99.90;;;;;;4935852;29;20044;-71
2022/08/30 00:46:45;;;;;;;16.85;6.90;;;16.00;99.90;;;;;;4936344;29;20436;-71
2022/08/30 00:49:12;;;;;;;23.08;7.30;;;16.00;99.90;;;;;;4936929;29;20051;-71
2022/08/30 00:51:40;;;;;;;17.02;7.15;;;16.00;99.90;;;;;;4935644;29;20043;-71
2022/08/30 00:54:07;;;;;;;17.13;6.95;;;16.00;99.90;;;;;;4939100;29;20040;-72
2022/08/30 00:56:34;;;;;;;15.60;7.47;;;16.00;99.90;;;;;;4936738;29;20055;-71
2022/08/30 00:59:03;;;;;;;15.75;6.53;;;16.00;99.90;;;;;;4936781;29;20126;-72
2022/08/30 01:01:31;;;;;;;18.63;7.88;;;16.00;99.90;;;;;;4955263;29;20062;-70
2022/08/30 01:03:58;;;;;;;17.90;6.75;;;15.90;99.90;;;;;;4954005;28;20138;-71
2022/08/30 01:06:24;;;;;;;;;;;15.90;99.90;;;;;;4938708;29;20503;-71
2022/08/30 01:08:51;;;;;;;17.20;7.18;;;15.90;99.90;;;;;;4955161;29;19986;-70
2022/08/30 01:11:22;;;;;;;15.60;7.88;;;15.90;99.90;;;;;;4954572;29;20051;-70
2022/08/30 01:13:50;;;;;;;15.57;7.72;;;15.90;99.90;;;;;;4941194;28;20177;-72
2022/08/30 01:16:17;;;;;;;15.90;7.90;;;15.90;99.90;;;;;;4944028;29;20054;-71
2022/08/30 01:18:43;;;;;;;15.15;8.32;;;15.90;99.90;;;;;;4942260;29;20122;-72
2022/08/30 01:21:38;;;;;;;19.08;8.73;;;15.80;99.90;;;;;;4939047;29;20101;-71
2022/08/30 01:24:06;;;;;;;17.77;8.98;;;15.80;99.90;;;;;;4941559;29;20039;-72
2022/08/30 01:26:33;;;;;;;19.00;9.20;;;15.70;99.90;;;;;;4938249;29;20126;-72
2022/08/30 01:29:03;;;;;;;16.52;8.27;;;15.70;99.90;;;;;;4935776;29;20066;-71
2022/08/30 01:31:29;;;;;;;23.80;8.88;;;15.70;99.90;;;;;;4955199;29;20193;-71
2022/08/30 01:33:55;;;;;;;21.23;10.90;;;15.60;99.90;;;;;;4936900;29;20479;-71
2022/08/30 01:36:21;;;;;;;23.20;10.18;;;15.60;99.90;;;;;;4937512;29;20051;-71
2022/08/30 01:38:52;;;;;;;28.50;11.40;;;15.60;99.90;;;;;;4936989;29;20443;-71
2022/08/30 01:41:25;;;;;;;22.15;10.50;;;15.60;99.90;;;;;;4954528;29;20275;-73
2022/08/30 01:43:54;;;;;;;17.70;8.63;;;15.60;99.90;;;;;;4953464;29;20099;-70
2022/08/30 01:46:24;;;;;;;18.77;7.97;;;15.60;99.90;;;;;;4937801;29;20090;-70
2022/08/30 01:48:52;;;;;;;19.65;8.95;;;15.50;99.90;;;;;;4953837;29;20466;-70
2022/08/30 01:51:19;;;;;;;19.65;8.63;;;15.50;99.90;;;;;;4953803;28;20043;-71
2022/08/30 01:53:45;;;;;;;19.92;8.45;;;15.50;99.90;;;;;;4934982;28;20460;-70
2022/08/30 01:56:12;;;;;;;18.83;9.32;;;15.50;99.90;;;;;;4921810;29;20090;-70
2022/08/30 01:58:38;;;;;;;19.35;8.60;;;15.40;99.90;;;;;;4919952;29;20074;-69
2022/08/30 02:01:07;;;;;;;20.33;9.52;;;15.40;99.90;;;;;;4936801;29;20098;-70
2022/08/30 02:03:35;;;;;;;17.95;8.50;;;15.30;99.90;;;;;;4953672;28;20089;-70
2022/08/30 02:06:06;;;;;;;23.58;9.13;;;15.30;99.90;;;;;;4953311;28;20047;-73
2022/08/30 02:08:32;;;;;;;18.70;8.95;;;15.30;99.90;;;;;;4934221;29;20059;-70
2022/08/30 02:10:58;;;;;;;18.63;9.00;;;15.20;99.90;;;;;;4934473;29;20111;-70
2022/08/30 02:13:25;;;;;;;19.75;9.20;;;15.10;99.90;;;;;;4933741;29;20091;-70
2022/08/30 02:15:53;;;;;;;22.02;10.18;;;15.10;99.90;;;;;;4917593;29;20405;-73
2022/08/30 02:18:19;;;;;;;18.90;9.05;;;15.00;99.90;;;;;;4917627;29;20055;-70
2022/08/30 02:20:45;;;;;;;19.98;9.07;;;15.00;99.90;;;;;;4941969;28;20051;-78
2022/08/30 02:23:11;;;;;;;18.17;9.25;;;14.90;99.90;;;;;;4935882;29;20055;-70
2022/08/30 02:25:37;;;;;;;18.25;9.02;;;14.90;99.90;;;;;;4953364;29;20066;-73
2022/08/30 02:28:04;;;;;;;20.88;9.32;;;14.90;99.90;;;;;;4933549;29;20043;-72
2022/08/30 02:30:30;;;;;;;20.63;9.27;;;14.80;99.90;;;;;;4918025;29;20059;-70
2022/08/30 02:32:56;;;;;;;22.50;10.88;;;14.80;99.90;;;;;;4933938;28;20047;-69
2022/08/30 02:35:22;;;;;;;20.80;10.50;;;14.70;99.90;;;;;;4942121;28;20130;-71
2022/08/30 02:37:47;;;;;;;21.00;9.98;;;14.70;99.90;;;;;;4952886;29;20051;-77
2022/08/30 02:40:14;;;;;;;22.80;10.02;;;14.70;99.90;;;;;;4936485;29;20090;-70
2022/08/30 02:42:40;;;;;;;25.70;9.63;;;14.70;99.90;;;;;;4937027;29;20446;-70
2022/08/30 02:45:07;;;;;;;20.65;8.93;;;14.60;99.90;;;;;;4935044;29;20543;-70
2022/08/30 02:47:33;;;;;;;18.25;9.50;;;14.60;99.90;;;;;;4937303;29;20451;-68
2022/08/30 02:50:01;;;;;;;20.55;10.18;;;14.60;99.90;;;;;;4952274;29;20050;-70
2022/08/30 02:52:27;;;;;;;22.13;10.45;;;14.50;99.90;;;;;;4954075;29;20474;-70
2022/08/30 02:54:54;;;;;;;21.92;10.30;;;14.50;99.90;;;;;;4952835;29;20124;-70
2022/08/30 02:57:20;;;;;;;23.90;10.83;;;14.50;99.90;;;;;;4937140;28;20051;-68
2022/08/30 02:59:46;;;;;;;25.30;10.70;;;14.40;99.90;;;;;;4933579;29;20318;-73
2022/08/30 03:02:12;;;;;;;26.95;11.32;;;14.50;99.90;;;;;;4952339;29;20059;-70
2022/08/30 03:04:39;;;;;;;22.23;10.75;;;14.40;99.90;;;;;;4919523;29;20043;-70
2022/08/30 03:07:08;;;;;;;22.85;11.05;;;14.40;99.90;;;;;;4936512;29;20105;-70
2022/08/30 03:09:35;;;;;;;21.95;10.82;;;14.40;99.90;;;;;;4952658;29;20051;-70
2022/08/30 03:12:01;;;;;;;25.77;10.75;;;14.30;99.90;;;;;;4953139;28;20035;-70
2022/08/30 03:14:27;;;;;;;26.67;11.23;;;14.30;99.90;;;;;;4938142;29;20043;-73
2022/08/30 03:16:54;;;;;;;20.42;10.57;;;14.30;99.90;;;;;;4936306;29;20054;-70
2022/08/30 03:19:20;;;;;;;21.95;10.65;;;14.30;99.90;;;;;;4953474;29;20122;-78
2022/08/30 03:21:45;;;;;;;21.50;10.93;;;14.30;99.90;;;;;;4937019;29;20177;-71
2022/08/30 03:24:12;;;;;;;22.55;11.25;;;14.20;99.90;;;;;;4935554;29;20484;-71
2022/08/30 03:26:38;;;;;;;27.35;12.73;;;14.20;99.90;;;;;;4953561;28;20079;-75
2022/08/30 03:29:03;;;;;;;28.65;11.18;;;14.10;99.90;;;;;;4956468;29;20047;-72
2022/08/30 03:31:29;;;;;;;20.58;11.15;;;14.10;99.90;;;;;;4940283;29;20054;-71
2022/08/30 03:33:55;;;;;;;25.90;11.32;;;14.00;99.90;;;;;;4957344;29;20039;-71
2022/08/30 03:36:21;;;;;;;24.33;10.90;;;14.00;99.90;;;;;;4958289;29;20046;-72
2022/08/30 03:38:46;;;;;;;23.13;11.93;;;14.00;99.90;;;;;;4925071;29;20082;-72
2022/08/30 03:41:12;;;;;;;27.05;11.30;;;14.00;99.90;;;;;;4940965;29;20098;-72
2022/08/30 03:43:38;;;;;;;31.77;13.23;;;14.00;99.90;;;;;;4958040;29;20043;-72
2022/08/30 03:46:04;;;;;;;22.23;11.20;;;13.90;99.90;;;;;;4958124;29;20134;-72
2022/08/30 03:48:30;;;;;;;27.20;13.77;;;13.90;99.90;;;;;;4957451;29;20126;-74
2022/08/30 03:50:56;;;;;;;34.00;13.07;;;13.80;99.90;;;;;;4957599;29;20979;-72
2022/08/30 03:53:23;;;;;;;30.57;13.50;;;13.80;99.90;;;;;;4939523;29;20047;-71
2022/08/30 03:55:48;;;;;;;29.17;13.10;;;13.80;99.90;;;;;;4956793;29;20133;-71
2022/08/30 03:58:14;;;;;;;26.70;12.93;;;13.80;99.90;;;;;;4923659;29;20472;-71
2022/08/30 04:00:40;;;;;;;26.40;12.52;;;13.70;99.90;;;;;;4957476;29;20059;-71
2022/08/30 04:03:06;;;;;;;26.73;13.50;;;13.60;99.90;;;;;;4957418;29;20166;-71
2022/08/30 04:05:31;;;;;;;26.33;12.77;;;13.60;99.90;;;;;;4940453;29;20047;-71
2022/08/30 04:07:57;;;;;;;30.60;12.57;;;13.60;99.90;;;;;;4955762;29;20456;-72
2022/08/30 04:10:23;;;;;;;28.27;13.85;;;13.50;99.90;;;;;;4941515;29;20081;-72
2022/08/30 04:12:49;;;;;;;30.63;13.67;;;13.60;99.90;;;;;;4958910;29;20102;-75
2022/08/30 04:15:17;;;;;;;29.53;12.63;;;13.50;99.90;;;;;;4940762;29;20287;-71
2022/08/30 04:17:42;;;;;;;30.70;14.50;;;13.40;99.90;;;;;;4920584;29;20378;-71
2022/08/30 04:20:09;;;;;;;31.45;13.93;;;13.50;99.90;;;;;;4936148;29;20165;-71
2022/08/30 04:22:35;;;;;;;31.02;14.20;;;13.40;99.90;;;;;;4915269;29;20046;-71
2022/08/30 04:25:05;;;;;;;31.92;13.80;;;13.40;99.90;;;;;;4955480;29;20089;-70
2022/08/30 04:27:31;;;;;;;30.30;14.18;;;13.40;99.90;;;;;;4938747;29;20047;-71
2022/08/30 04:29:58;;;;;;;33.75;15.77;;;13.40;99.90;;;;;;4954511;29;20043;-71
2022/08/30 04:32:24;;;;;;;29.02;14.07;;;13.40;99.90;;;;;;4956282;29;20113;-74
2022/08/30 04:34:56;;;;;;;31.67;15.20;;;13.30;99.90;;;;;;4923225;29;20499;-72
2022/08/30 04:37:21;;;;;;;29.50;14.55;;;13.30;99.90;;;;;;4956773;28;20078;-71
2022/08/30 04:39:47;;;;;;;32.15;14.77;;;13.30;99.90;;;;;;4922134;29;20079;-71
2022/08/30 04:42:13;;;;;;;33.25;14.77;;;13.20;99.90;;;;;;4956278;29;20063;-71
2022/08/30 04:44:39;;;;;;;30.03;14.57;;;13.20;99.90;;;;;;4938149;29;20126;-71
2022/08/30 04:47:07;;;;;;;32.22;14.90;;;13.20;99.90;;;;;;4938759;29;20321;-71
2022/08/30 04:49:33;;;;;;;28.52;14.23;;;13.20;99.90;;;;;;4956115;28;20463;-71
2022/08/30 04:51:58;;;;;;;34.78;15.48;;;13.10;99.90;;;;;;4956472;29;20104;-72
2022/08/30 04:54:24;;;;;;;29.70;14.85;;;13.20;99.90;;;;;;4951258;29;20035;-70
2022/08/30 04:56:50;;;;;;;32.42;14.90;;;13.20;99.90;;;;;;4941295;29;20079;-74
2022/08/30 04:59:16;;;;;;;33.00;15.30;;;13.20;99.90;;;;;;4960669;28;20055;-71
2022/08/30 05:01:42;;;;;;;34.22;13.07;;;13.20;99.90;;;;;;4976747;29;20094;-74
2022/08/30 05:04:08;;;;;;;34.85;15.00;;;13.10;99.90;;;;;;4954059;29;20051;-74
2022/08/30 05:06:34;;;;;;;31.48;13.98;;;13.10;99.90;;;;;;4972919;29;20054;-72
2022/08/30 05:09:00;;;;;;;33.15;15.25;;;13.10;99.90;;;;;;4954114;29;20142;-75
2022/08/30 05:11:27;;;;;;;29.80;13.23;;;13.10;99.90;;;;;;4934181;29;20051;-72
2022/08/30 05:13:53;;;;;;;29.55;14.32;;;13.10;99.90;;;;;;4963097;28;20047;-71
2022/08/30 05:16:18;;;;;;;29.83;15.13;;;13.10;99.90;;;;;;4966396;29;20078;-74
2022/08/30 05:18:46;;;;;;;32.95;16.50;;;13.10;99.90;;;;;;4946360;29;20043;-71
2022/08/30 05:21:15;;;;;;;33.13;14.48;;;13.20;99.90;;;;;;4964055;29;20051;-70
2022/08/30 05:23:41;;;;;;;35.20;15.15;;;13.20;99.90;;;;;;4959522;28;20043;-70
2022/08/30 05:26:10;;;;;;;31.80;15.15;;;13.30;99.90;;;;;;4941386;29;20055;-71
2022/08/30 05:28:36;;;;;;;33.05;15.05;;;13.30;99.90;;;;;;4956319;28;20043;-71
2022/08/30 05:31:10;;;;;;;34.25;15.75;;;13.30;99.90;;;;;;4939865;29;20114;-71
2022/08/30 05:33:36;;;;;;;33.83;13.95;;;13.30;99.90;;;;;;4923689;29;20091;-69
2022/08/30 05:36:05;;;;;;;38.08;15.75;;;13.30;99.90;;;;;;4923212;29;20380;-71
2022/08/30 05:38:31;;;;;;;33.15;14.55;;;13.40;99.90;;;;;;4955594;29;20043;-71
2022/08/30 05:40:57;;;;;;;32.15;15.93;;;13.40;99.90;;;;;;4939816;29;20050;-72
2022/08/30 05:43:22;;;;;;;28.48;14.90;;;13.40;99.90;;;;;;4953430;28;20058;-72
2022/08/30 05:45:58;;;;;;;27.27;14.05;;;13.40;99.90;;;;;;4935388;29;20515;-73
2022/08/30 05:48:24;;;;;;;30.13;14.40;;;13.50;99.90;;;;;;4936221;29;20051;-71
2022/08/30 05:50:49;;;;;;;33.15;15.23;;;13.50;99.90;;;;;;4936518;29;20052;-71
2022/08/30 05:53:15;;;;;;;34.90;14.55;;;13.60;99.90;;;;;;4917967;28;20078;-76
2022/08/30 05:55:41;;;;;;;29.60;13.75;;;13.60;99.90;;;;;;4952963;28;20039;-71
2022/08/30 05:58:07;;;;;;;33.88;14.18;;;13.70;99.90;;;;;;4936482;29;20062;-72
2022/08/30 06:00:35;;;;;;;28.13;13.85;;;13.70;99.90;;;;;;4954677;29;20050;-76
2022/08/30 06:03:01;;;;;;;30.77;13.38;;;13.80;99.90;;;;;;4954091;29;20047;-83
2022/08/30 06:05:27;;;;;;;29.80;14.20;;;13.80;99.90;;;;;;4937223;28;20515;-71
2022/08/30 06:07:53;;;;;;;26.77;12.50;;;13.90;99.90;;;;;;4954313;29;20047;-73
2022/08/30 06:10:19;;;;;;;30.73;13.50;;;14.00;99.90;;;;;;4936852;29;20074;-73
2022/08/30 06:12:44;;;;;;;31.08;12.55;;;14.00;99.90;;;;;;4954191;29;20047;-75
2022/08/30 06:15:10;;;;;;;26.38;12.50;;;14.00;99.90;;;;;;4953104;29;20047;-72
2022/08/30 06:17:38;;;;;;;30.42;13.20;;;14.10;99.90;;;;;;4937065;29;20047;-72
2022/08/30 06:20:04;;;;;;;28.38;12.85;;;14.20;99.90;;;;;;4953420;29;20514;-72
2022/08/30 06:22:30;;;;;;;26.15;13.07;;;14.20;99.90;;;;;;4954192;29;20051;-72
2022/08/30 06:24:56;;;;;;;28.35;13.80;;;14.30;99.90;;;;;;4953372;29;20118;-72
2022/08/30 06:27:21;;;;;;;29.33;13.48;;;14.30;99.90;;;;;;4921361;29;20349;-71
2022/08/30 06:29:50;;;;;;;24.23;12.90;;;14.40;99.90;;;;;;4952977;29;20126;-72
2022/08/30 06:32:16;;;;;;;25.17;12.57;;;14.50;99.90;;;;;;4953923;29;20058;-74
2022/08/30 06:34:41;;;;;;;25.90;12.60;;;14.50;99.90;;;;;;4953590;29;20043;-72
2022/08/30 06:37:07;;;;;;;27.27;12.48;;;14.60;99.90;;;;;;4953645;29;20047;-73
2022/08/30 06:39:34;;;;;;;23.08;11.45;;;14.60;99.90;;;;;;4953331;29;20047;-72
2022/08/30 06:42:00;;;;;;;;;;;14.70;99.90;;;;;;4954526;29;20451;-72
2022/08/30 06:44:26;;;;;;;26.20;11.30;;;14.70;99.90;;;;;;4952854;29;19944;-73
2022/08/30 06:46:51;;;;;;;24.25;11.38;;;14.70;99.90;;;;;;4937443;29;20055;-72
2022/08/30 06:49:17;;;;;;;23.23;11.77;;;14.90;99.90;;;;;;4953012;29;20054;-75
2022/08/30 06:51:43;;;;;;;23.05;10.32;;;15.00;99.90;;;;;;4953765;29;20051;-71
2022/08/30 06:54:10;;;;;;;21.45;10.25;;;15.00;99.90;;;;;;4953039;29;20047;-73
2022/08/30 06:56:37;;;;;;;23.05;9.65;;;15.10;99.90;;;;;;4953542;29;20055;-73
2022/08/30 06:59:03;;;;;;;20.13;8.57;;;15.20;99.90;;;;;;4935929;29;20059;-72
2022/08/30 07:01:29;;;;;;;17.85;8.85;;;15.30;99.90;;;;;;4936632;29;20122;-72
2022/08/30 07:03:56;;;;;;;20.92;9.55;;;15.50;99.90;;;;;;4940161;29;20460;-71
2022/08/30 07:06:23;;;;;;;19.00;8.02;;;15.50;99.90;;;;;;4960408;29;20061;-72
2022/08/30 07:08:49;;;;;;;20.83;8.35;;;15.60;99.90;;;;;;4953524;29;20054;-72
2022/08/30 07:11:34;;;;;;;18.83;7.75;;;15.70;99.90;;;;;;4947141;29;20062;-74
2022/08/30 07:14:01;;;;;;;16.17;7.32;;;15.80;99.90;;;;;;4940175;29;20055;-74
2022/08/30 07:16:27;;;;;;;;;;;15.90;99.90;;;;;;4958302;29;20086;-71
2022/08/30 07:18:54;;;;;;;17.10;5.90;;;16.10;99.90;;;;;;4956998;29;19922;-73
2022/08/30 07:21:24;;;;;;;11.50;4.75;;;16.10;99.90;;;;;;4956939;29;20455;-72
2022/08/30 07:23:49;;;;;;;14.02;5.40;;;16.10;99.90;;;;;;4923450;29;20058;-73
2022/08/30 07:26:19;;;;;;;13.30;4.00;;;16.30;99.90;;;;;;4956747;29;20055;-72
2022/08/30 07:28:46;;;;;;;12.57;3.97;;;16.30;99.90;;;;;;4938984;29;20440;-71
2022/08/30 07:31:13;;;;;;;13.30;3.20;;;16.40;99.90;;;;;;4957209;29;20039;-75
2022/08/30 07:33:39;;;;;;;9.75;3.17;;;16.50;99.90;;;;;;4956933;29;20047;-77
2022/08/30 07:36:06;;;;;;;10.38;3.30;;;16.60;99.90;;;;;;4956975;29;20043;-73
2022/08/30 07:38:32;;;;;;;10.02;3.47;;;16.60;99.90;;;;;;4935210;29;20130;-72
2022/08/30 07:40:59;;;;;;;11.70;3.20;;;16.70;99.90;;;;;;4936325;29;20130;-73
2022/08/30 07:43:27;;;;;;;8.98;2.70;;;16.70;99.90;;;;;;4936752;29;20098;-71
2022/08/30 07:45:53;;;;;;;7.50;2.42;;;16.90;99.90;;;;;;4921047;29;20481;-74
2022/08/30 07:48:19;;;;;;;12.18;2.55;;;17.00;99.90;;;;;;4920144;29;20131;-73
2022/08/30 07:50:45;;;;;;;7.22;2.15;;;17.00;99.90;;;;;;4905413;29;20226;-71
2022/08/30 07:53:11;;;;;;;;;;;17.10;99.90;;;;;;4937395;29;20052;-71
2022/08/30 07:55:37;;;;;;;6.97;2.07;;;17.20;99.90;;;;;;4939703;29;19929;-71
2022/08/30 07:58:03;;;;;;;7.22;1.92;;;17.20;99.90;;;;;;4938578;29;20579;-74
2022/08/30 08:00:29;;;;;;;7.67;2.17;;;17.30;99.90;;;;;;4956466;29;20055;-74
2022/08/30 08:02:55;;;;;;;9.00;2.27;;;17.30;99.90;;;;;;4939579;29;20495;-74
2022/08/30 08:05:21;;;;;;;5.63;1.85;;;17.40;99.90;;;;;;4940132;29;20039;-72
2022/08/30 08:07:46;;;;;;;4.60;1.67;;;17.50;99.90;;;;;;4941222;28;20065;-75
2022/08/30 08:10:12;;;;;;;7.53;1.67;;;17.60;99.90;;;;;;4958851;29;20043;-71
2022/08/30 08:12:39;;;;;;;9.10;2.40;;;17.60;99.90;;;;;;4942436;28;20055;-70
2022/08/30 08:15:06;;;;;;;9.82;1.92;;;17.70;99.90;;;;;;4941204;29;20051;-72
2022/08/30 08:17:32;;;;;;;6.78;1.85;;;17.70;99.90;;;;;;4959017;29;20075;-72
2022/08/30 08:19:58;;;;;;;11.90;2.13;;;17.80;99.90;;;;;;4942120;29;20492;-73
2022/08/30 08:22:23;;;;;;;8.87;2.00;;;17.80;99.90;;;;;;4957490;29;20134;-71
2022/08/30 08:24:49;;;;;;;6.32;1.83;;;17.80;99.90;;;;;;4940313;29;20043;-72
2022/08/30 08:27:15;;;;;;;13.80;1.77;;;17.90;99.90;;;;;;4944529;29;20055;-72
2022/08/30 08:29:41;;;;;;;7.40;1.70;;;18.00;99.90;;;;;;4955466;29;20118;-72
2022/08/30 08:32:06;;;;;;;7.60;1.87;;;18.00;99.90;;;;;;4958239;29;20133;-72
2022/08/30 08:34:34;;;;;;;9.68;1.83;;;18.10;99.90;;;;;;4955223;29;20043;-75
2022/08/30 08:37:00;;;;;;;9.48;1.77;;;18.10;99.90;;;;;;4939255;29;20065;-70
2022/08/30 08:39:25;;;;;;;7.22;2.55;;;18.20;99.90;;;;;;4948818;29;20051;-72
2022/08/30 08:41:57;;;;;;;6.30;2.30;;;18.30;99.90;;;;;;4955807;28;20187;-71
2022/08/30 08:44:41;;;;;;;8.00;2.15;;;18.30;99.90;;;;;;4954612;28;20054;-72
2022/08/30 08:47:39;;;;;;;12.18;2.30;;;18.40;99.90;;;;;;4955064;29;20153;-70
2022/08/30 08:50:11;;;;;;;11.05;2.47;;;18.40;99.90;;;;;;4931327;28;20067;-74
2022/08/30 08:55:32;;;;;;;8.57;2.08;;;18.50;99.90;;;;;;4955034;29;20055;-70
2022/08/30 08:57:58;;;;;;;11.30;1.85;;;18.50;99.90;;;;;;4937803;29;20114;-72
2022/08/30 09:00:24;;;;;;;9.70;1.93;;;18.60;99.90;;;;;;4953735;29;20483;-71
2022/08/30 09:03:02;;;;;;;7.40;1.77;;;18.70;99.90;;;;;;4954271;29;20058;-75
2022/08/30 09:05:35;;;;;;;8.30;1.98;;;18.80;99.90;;;;;;4955023;29;20098;-71
2022/08/30 09:08:06;;;;;;;7.68;1.77;;;18.80;99.90;;;;;;4953777;29;20047;-72
2022/08/30 09:10:34;;;;;;;10.02;2.00;;;18.90;99.90;;;;;;4955380;29;20114;-71
2022/08/30 09:13:00;;;;;;;8.13;1.75;;;18.90;99.90;;;;;;4938830;29;20058;-72
2022/08/30 09:15:32;;;;;;;10.27;2.17;;;18.80;99.90;;;;;;4939772;29;20043;-72
2022/08/30 09:18:08;;;;;;;8.38;2.10;;;18.90;99.90;;;;;;4957455;29;20074;-72
2022/08/30 09:20:33;;;;;;;8.95;2.05;;;18.90;99.90;;;;;;4941150;29;20059;-72
2022/08/30 09:23:26;;;;;;;8.07;1.87;;;18.90;99.90;;;;;;4958396;29;20086;-72
2022/08/30 09:25:55;;;;;;;6.38;1.80;;;19.10;99.90;;;;;;4955848;28;20051;-71
2022/08/30 09:28:24;;;;;;;8.30;2.03;;;19.20;99.90;;;;;;4937792;29;20058;-72
2022/08/30 09:31:07;;;;;;;8.18;2.95;;;19.20;99.90;;;;;;4939698;29;20055;-70
2022/08/30 09:33:35;;;;;;;8.07;1.70;;;19.10;99.90;;;;;;4921549;29;20058;-73
2022/08/30 09:36:17;;;;;;;10.70;1.98;;;19.20;99.90;;;;;;4937842;29;20054;-72
2022/08/30 09:38:44;;;;;;;7.03;1.90;;;19.30;99.90;;;;;;4937537;29;20290;-73
2022/08/30 09:41:29;;;;;;;10.00;2.30;;;19.30;99.90;;;;;;4955194;29;20055;-73
2022/08/30 09:44:06;;;;;;;9.60;2.72;;;19.20;99.90;;;;;;4937242;29;20043;-72
2022/08/30 09:46:33;;;;;;;10.63;2.22;;;19.20;99.90;;;;;;4938363;29;20047;-73
2022/08/30 09:48:59;;;;;;;7.95;1.92;;;19.30;99.90;;;;;;4954852;29;20043;-72
2022/08/30 09:51:38;;;;;;;9.40;2.20;;;19.40;99.90;;;;;;4937304;29;20078;-70
2022/08/30 09:54:30;;;;;;;8.25;1.83;;;19.60;99.90;;;;;;4920844;29;20436;-71
2022/08/30 09:57:19;;;;;;;7.90;2.03;;;19.70;99.90;;;;;;4954402;29;20109;-73
2022/08/30 09:59:59;;;;;;;6.38;1.95;;;19.80;99.90;;;;;;4952549;28;20058;-72
2022/08/30 10:02:42;;;;;;;8.10;2.00;;;19.60;99.90;;;;;;4939918;29;20059;-71
2022/08/30 10:05:42;;;;;;;8.90;2.10;;;19.70;99.90;;;;;;4960847;29;20047;-73
2022/08/30 10:08:31;;;;;;;8.82;2.25;;;19.70;99.90;;;;;;4927565;29;20149;-72
2022/08/30 10:11:07;;;;;;;7.72;2.00;;;19.80;99.90;;;;;;4956117;29;20090;-74
2022/08/30 10:14:04;;;;;;;11.98;2.22;;;20.00;99.90;;;;;;4957353;29;20086;-71
2022/08/30 10:16:57;;;;;;;9.35;2.05;;;20.00;99.60;;;;;;4955056;29;20054;-73
2022/08/30 10:19:44;;;;;;;6.28;1.95;;;19.80;99.90;;;;;;4938399;29;20051;-77
2022/08/30 10:22:34;;;;;;;7.50;1.60;;;19.90;99.40;;;;;;4940018;29;20055;-70
2022/08/30 10:25:29;;;;;;;6.68;1.70;;;19.90;98.60;;;;;;4954429;29;20047;-71
2022/08/30 10:28:34;;;;;;;7.00;1.83;;;19.90;97.50;;;;;;4947138;29;20115;-73
2022/08/30 10:31:35;;;;;;;8.40;1.92;;;19.90;97.90;;;;;;4939661;29;20059;-71
2022/08/30 10:34:22;;;;;;;6.30;1.70;;;19.90;99.30;;;;;;4937188;29;20054;-71
2022/08/30 10:37:07;;;;;;;6.22;1.50;;;20.10;99.10;;;;;;4956265;28;20043;-73
2022/08/30 10:39:40;;;;;;;5.30;1.48;;;20.00;99.10;;;;;;4957892;29;20061;-85
2022/08/30 10:42:23;;;;;;;8.93;2.67;;;20.10;99.60;;;;;;4958442;29;20404;-72
2022/08/30 10:44:54;;;;;;;7.45;1.55;;;20.80;99.90;;;;;;4939663;29;20043;-72
2022/08/30 10:47:29;;;;;;;6.95;1.92;;;20.40;99.90;;;;;;4959072;29;20062;-76
2022/08/30 10:50:20;;;;;;;6.97;2.15;;;20.40;99.90;;;;;;4941974;29;20062;-72
2022/08/30 10:52:50;;;;;;;10.88;1.73;;;20.40;98.60;;;;;;4958662;29;20054;-74
2022/08/30 10:55:23;;;;;;;6.80;2.10;;;20.40;99.70;;;;;;4959167;29;20130;-71
2022/08/30 10:57:50;;;;;;;6.35;1.77;;;20.40;99.50;;;;;;4958868;29;20051;-81
2022/08/30 11:00:25;;;;;;;10.88;2.13;;;20.40;99.90;;;;;;4939928;29;20063;-71
2022/08/30 11:03:21;;;;;;;6.00;1.40;;;20.60;99.90;;;;;;4940008;29;20218;-70
2022/08/30 11:05:57;;;;;;;5.82;1.50;;;20.70;99.10;;;;;;4957052;29;20133;-74
2022/08/30 11:08:40;;;;;;;7.53;1.70;;;20.60;98.90;;;;;;4957126;29;20047;-72
2022/08/30 11:11:19;;;;;;;6.10;1.60;;;20.80;97.10;;;;;;4937498;29;20130;-70
2022/08/30 11:13:45;;;;;;;9.65;1.67;;;20.60;94.50;;;;;;4937280;29;20083;-71
2022/08/30 11:16:14;;;;;;;6.75;1.40;;;20.50;95.20;;;;;;4938888;29;20480;-71
2022/08/30 11:18:48;;;;;;;7.75;1.92;;;;;;;;;;4920819;29;20059;-71
2022/08/30 11:21:40;;;;;;;6.65;1.20;;;21.80;99.90;;;;;;4938506;29;20107;-71
2022/08/30 11:24:27;;;;;;;8.15;1.73;;;20.80;99.90;;;;;;4937562;29;20043;-71
2022/08/30 11:26:58;;;;;;;11.65;2.05;;;20.90;99.90;;;;;;4936699;29;20087;-71
2022/08/30 11:29:41;;;;;;;6.20;1.63;;;20.90;99.90;;;;;;4937562;29;20063;-71
2022/08/30 11:32:12;;;;;;;4.78;1.60;;;20.90;99.90;;;;;;4937716;29;20059;-72
2022/08/30 11:34:47;;;;;;;6.47;1.42;;;20.80;99.90;;;;;;4938925;29;20127;-72
2022/08/30 11:37:35;;;;;;;3.30;1.23;;;20.90;99.40;;;;;;4938385;29;20086;-71
2022/08/30 11:40:27;;;;;;;6.28;1.48;;;20.80;91.50;;;;;;4920464;29;20052;-73
2022/08/30 11:42:54;;;;;;;4.30;1.60;;;20.80;92.10;;;;;;4930114;29;20059;-71
2022/08/30 11:45:23;;;;;;;12.32;1.60;;;20.90;92.50;;;;;;4940866;29;20058;-71
2022/08/30 11:47:56;;;;;;;8.10;1.77;;;20.90;91.40;;;;;;4937132;29;20531;-72
2022/08/30 11:50:51;;;;;;;6.65;1.55;;;20.90;91.70;;;;;;4941419;29;20107;-73
2022/08/30 11:53:28;;;;;;;3.58;0.95;;;21.00;91.50;;;;;;4939079;29;20496;-74
2022/08/30 11:56:24;;;;;;;4.72;1.30;;;21.00;92.10;;;;;;4922959;29;20055;-72
2022/08/30 11:58:59;;;;;;;8.77;1.23;;;21.20;92.40;;;;;;4941350;29;20066;-71
2022/08/30 12:01:25;;;;;;;8.63;1.30;;;21.20;92.40;;;;;;4958661;28;20059;-73
2022/08/30 12:04:23;;;;;;;6.00;1.30;;;21.20;91.70;;;;;;4957248;29;20050;-72
2022/08/30 12:06:59;;;;;;;5.45;1.10;;;21.20;90.20;;;;;;4956411;29;20456;-72
2022/08/30 12:09:25;;;;;;;9.17;1.30;;;21.30;90.20;;;;;;4957430;29;20082;-71
2022/08/30 12:12:22;;;;;;;12.50;1.00;;;21.30;91.20;;;;;;4957341;29;20287;-72
2022/08/30 12:14:54;;;;;;;5.25;1.20;;;21.50;90.70;;;;;;4957746;29;20290;-72
2022/08/30 12:20:48;;;;;;;7.45;1.33;;;21.50;90.00;;;;;;4959976;29;20070;-71
2022/08/30 12:23:18;;;;;;;6.65;1.33;;;21.50;90.80;;;;;;4958894;29;20062;-70
2022/08/30 12:25:44;;;;;;;5.78;1.30;;;21.40;88.20;;;;;;4959884;29;20058;-71
2022/08/30 12:28:13;;;;;;;12.98;1.63;;;21.40;90.60;;;;;;4957611;29;20051;-77
2022/08/30 12:30:46;;;;;;;5.70;1.10;;;21.60;89.60;;;;;;4951421;29;20571;-71
2022/08/30 12:33:24;;;;;;;5.25;1.23;;;21.70;90.80;;;;;;4935769;29;20402;-72
2022/08/30 12:35:49;;;;;;;5.97;1.23;;;21.50;87.10;;;;;;4921553;29;20530;-72
2022/08/30 12:38:19;;;;;;;4.73;1.10;;;21.70;90.30;;;;;;4936587;29;20044;-73
2022/08/30 12:40:57;;;;;;;4.10;1.02;;;21.80;90.30;;;;;;4937617;29;20492;-72
2022/08/30 12:43:29;;;;;;;8.07;1.40;;;21.80;89.70;;;;;;4906533;29;20059;-71
2022/08/30 12:45:58;;;;;;;6.40;1.25;;;21.80;89.00;;;;;;4936533;29;20103;-72
2022/08/30 12:48:24;;;;;;;5.43;1.45;;;21.90;90.40;;;;;;4940054;29;20086;-71
2022/08/30 12:50:54;;;;;;;;;;;22.00;90.60;;;;;;4955290;29;20596;-70
2022/08/30 12:53:29;;;;;;;6.43;1.20;;;22.00;86.50;;;;;;4954770;29;20013;-71
2022/08/30 12:56:13;;;;;;;7.60;1.40;;;22.10;88.30;;;;;;4953913;29;20047;-71
2022/08/30 12:58:54;;;;;;;9.23;1.45;;;22.20;89.20;;;;;;4953323;29;20480;-72
2022/08/30 13:01:32;;;;;;;6.40;1.00;;;22.20;89.30;;;;;;4953955;28;20071;-71